Time,TemperatureF,DewpointF,PressureIn,WindDirection,WindDirectionDegrees,WindSpeedMPH,WindSpeedGustMPH,Humidity,HourlyPrecipIn,Conditions,Clouds,dailyrainin,SoftwareType,DateUTC
2013-04-21 00:00:00,38.7,22.6,30.01,NNW,337,4.7,-999.0,52,-99.99,,,0.00,Acu-Link.com,2013-04-21 04:00:00,
2013-04-21 00:15:00,38.1,22.1,30.02,NW,315,3.8,-999.0,52,-99.99,,,0.00,Acu-Link.com,2013-04-21 04:15:00,
2013-04-21 00:30:00,37.6,21.6,30.04,NW,315,3.1,-999.0,52,-99.99,,,0.00,Acu-Link.com,2013-04-21 04:30:00,
2013-04-21 00:46:00,36.9,21.3,30.04,WNW,292,6.3,-999.0,53,-99.99,,,0.00,Acu-Link.com,2013-04-21 04:46:00,
2013-04-21 01:01:00,36.0,21.4,30.05,WNW,292,3.8,-999.0,55,-99.99,,,0.00,Acu-Link.com,2013-04-21 05:01:00,
2013-04-21 01:16:00,35.8,21.2,30.06,NW,315,4.7,-999.0,55,-99.99,,,0.00,Acu-Link.com,2013-04-21 05:16:00,
2013-04-21 01:31:00,35.2,20.7,30.07,NNE,22,5.1,-999.0,55,-99.99,,,0.00,Acu-Link.com,2013-04-21 05:31:00,
2013-04-21 01:46:00,35.1,20.5,30.08,West,270,2.7,-999.0,55,-99.99,,,0.00,Acu-Link.com,2013-04-21 05:46:00,
2013-04-21 02:02:00,34.2,20.1,30.07,NNW,337,4.7,-999.0,56,-99.99,,,0.00,Acu-Link.com,2013-04-21 06:02:00,
2013-04-21 02:17:00,34.3,19.4,30.07,NNE,22,3.1,-999.0,54,-99.99,,,0.00,Acu-Link.com,2013-04-21 06:17:00,
2013-04-21 02:32:00,34.0,19.1,30.09,South,180,6.7,-999.0,54,-99.99,,,0.00,Acu-Link.com,2013-04-21 06:32:00,
2013-04-21 02:47:00,33.6,18.8,30.09,NNW,337,4.3,-999.0,54,-99.99,,,0.00,Acu-Link.com,2013-04-21 06:47:00,
2013-04-21 03:03:00,33.4,19.0,30.10,WNW,292,4.7,-999.0,55,-99.99,,,0.00,Acu-Link.com,2013-04-21 07:03:00,
2013-04-21 03:18:00,33.3,18.9,30.10,NW,315,3.8,-999.0,55,-99.99,,,0.00,Acu-Link.com,2013-04-21 07:18:00,
2013-04-21 03:33:00,32.5,19.4,30.11,WNW,292,2.2,-999.0,58,-99.99,,,0.00,Acu-Link.com,2013-04-21 07:33:00,
2013-04-21 03:48:00,32.0,19.3,30.11,WNW,292,2.7,-999.0,59,-99.99,,,0.00,Acu-Link.com,2013-04-21 07:48:00,
2013-04-21 04:03:00,31.8,19.5,30.12,WNW,292,1.1,-999.0,60,-99.99,,,0.00,Acu-Link.com,2013-04-21 08:03:00,
2013-04-21 04:19:00,31.3,19.4,30.12,WNW,292,2.7,-999.0,61,-99.99,,,0.00,Acu-Link.com,2013-04-21 08:19:00,
2013-04-21 04:34:00,31.1,19.6,30.13,WNW,292,0.0,-999.0,62,-99.99,,,0.00,Acu-Link.com,2013-04-21 08:34:00,
2013-04-21 04:49:00,30.4,19.7,30.14,West,270,0.0,-999.0,64,-99.99,,,0.00,Acu-Link.com,2013-04-21 08:49:00,
2013-04-21 05:04:00,29.8,20.2,30.14,West,270,1.1,-999.0,67,-99.99,,,0.00,Acu-Link.com,2013-04-21 09:04:00,
2013-04-21 05:19:00,29.7,20.4,30.15,North,0,1.1,-999.0,68,-99.99,,,0.00,Acu-Link.com,2013-04-21 09:19:00,
2013-04-21 05:35:00,29.1,20.2,30.16,West,270,1.1,-999.0,69,-99.99,,,0.00,Acu-Link.com,2013-04-21 09:35:00,
2013-04-21 05:50:00,29.5,20.9,30.17,West,270,2.2,-999.0,70,-99.99,,,0.00,Acu-Link.com,2013-04-21 09:50:00,
2013-04-21 06:05:00,29.8,21.3,30.18,SW,225,0.0,-999.0,70,-99.99,,,0.00,Acu-Link.com,2013-04-21 10:05:00,
2013-04-21 06:20:00,31.6,21.6,30.19,West,270,1.6,-999.0,66,-99.99,,,0.00,Acu-Link.com,2013-04-21 10:20:00,
2013-04-21 06:35:00,34.0,22.0,30.21,WNW,292,2.2,-999.0,61,-99.99,,,0.00,Acu-Link.com,2013-04-21 10:35:00,
2013-04-21 06:51:00,36.1,22.8,30.22,North,0,2.2,-999.0,58,-99.99,,,0.00,Acu-Link.com,2013-04-21 10:51:00,
2013-04-21 07:06:00,37.8,23.1,30.23,NNW,337,2.2,-999.0,55,-99.99,,,0.00,Acu-Link.com,2013-04-21 11:06:00,
2013-04-21 07:21:00,38.8,22.7,30.24,NW,315,2.7,-999.0,52,-99.99,,,0.00,Acu-Link.com,2013-04-21 11:21:00,
2013-04-21 07:36:00,37.6,20.6,30.25,West,270,3.8,-999.0,50,-99.99,,,0.00,Acu-Link.com,2013-04-21 11:36:00,
2013-04-21 07:51:00,39.9,21.3,30.26,NNE,22,3.8,-999.0,47,-99.99,,,0.00,Acu-Link.com,2013-04-21 11:51:00,
2013-04-21 08:07:00,39.7,21.2,30.27,NNW,337,2.7,-999.0,47,-99.99,,,0.00,Acu-Link.com,2013-04-21 12:07:00,
2013-04-21 08:22:00,38.7,20.7,30.28,West,270,7.4,-999.0,48,-99.99,,,0.00,Acu-Link.com,2013-04-21 12:22:00,
2013-04-21 08:37:00,38.7,20.7,30.28,NW,315,5.8,-999.0,48,-99.99,,,0.00,Acu-Link.com,2013-04-21 12:37:00,
2013-04-21 08:52:00,38.7,20.7,30.28,WNW,292,4.3,-999.0,48,-99.99,,,0.00,Acu-Link.com,2013-04-21 12:52:00,
2013-04-21 09:08:00,40.1,21.0,30.29,NW,315,4.3,-999.0,46,-99.99,,,0.00,Acu-Link.com,2013-04-21 13:08:00,
2013-04-21 09:23:00,40.5,21.3,30.29,East,90,5.1,-999.0,46,-99.99,,,0.00,Acu-Link.com,2013-04-21 13:23:00,
2013-04-21 09:38:00,41.0,21.8,30.30,NW,315,7.4,-999.0,46,-99.99,,,0.00,Acu-Link.com,2013-04-21 13:38:00,
2013-04-21 09:53:00,41.5,22.3,30.30,NW,315,2.7,-999.0,46,-99.99,,,0.00,Acu-Link.com,2013-04-21 13:53:00,
2013-04-21 10:08:00,41.4,21.1,30.30,NE,45,7.8,-999.0,44,-99.99,,,0.00,Acu-Link.com,2013-04-21 14:08:00,
2013-04-21 10:24:00,42.3,21.9,30.31,NW,315,4.7,-999.0,44,-99.99,,,0.00,Acu-Link.com,2013-04-21 14:24:00,
2013-04-21 10:39:00,43.2,21.1,30.31,NNW,337,4.7,-999.0,41,-99.99,,,0.00,Acu-Link.com,2013-04-21 14:39:00,
2013-04-21 10:54:00,44.1,22.5,30.31,NNE,22,3.1,-999.0,42,-99.99,,,0.00,Acu-Link.com,2013-04-21 14:54:00,
2013-04-21 11:09:00,44.6,21.8,30.31,NNW,337,4.3,-999.0,40,-99.99,,,0.00,Acu-Link.com,2013-04-21 15:09:00,
2013-04-21 11:25:00,45.0,23.3,30.32,NNW,337,5.8,-999.0,42,-99.99,,,0.00,Acu-Link.com,2013-04-21 15:25:00,
2013-04-21 11:40:00,45.5,22.0,30.32,NE,45,4.7,-999.0,39,-99.99,,,0.00,Acu-Link.com,2013-04-21 15:40:00,
2013-04-21 11:55:00,46.9,24.5,30.32,NW,315,4.3,-999.0,41,-99.99,,,0.00,Acu-Link.com,2013-04-21 15:55:00,
2013-04-21 12:10:00,47.7,20.7,30.33,SW,225,4.7,-999.0,34,-99.99,,,0.00,Acu-Link.com,2013-04-21 16:10:00,
2013-04-21 12:25:00,46.6,21.1,30.33,North,0,5.1,-999.0,36,-99.99,,,0.00,Acu-Link.com,2013-04-21 16:25:00,
2013-04-21 12:41:00,46.4,20.3,30.33,NNE,22,5.1,-999.0,35,-99.99,,,0.00,Acu-Link.com,2013-04-21 16:41:00,
2013-04-21 12:56:00,49.1,23.3,30.32,NNW,337,5.8,-999.0,36,-99.99,,,0.00,Acu-Link.com,2013-04-21 16:56:00,
2013-04-21 13:11:00,47.7,20.7,30.32,SW,225,1.6,-999.0,34,-99.99,,,0.00,Acu-Link.com,2013-04-21 17:11:00,
2013-04-21 13:26:00,49.1,20.5,30.31,WNW,292,2.7,-999.0,32,-99.99,,,0.00,Acu-Link.com,2013-04-21 17:26:00,
2013-04-21 13:42:00,49.1,20.5,30.32,ENE,67,6.3,-999.0,32,-99.99,,,0.00,Acu-Link.com,2013-04-21 17:42:00,
2013-04-21 13:57:00,50.5,18.7,30.32,NW,315,3.8,-999.0,28,-99.99,,,0.00,Acu-Link.com,2013-04-21 17:57:00,
2013-04-21 14:12:00,50.4,21.6,30.32,WNW,292,1.1,-999.0,32,-99.99,,,0.00,Acu-Link.com,2013-04-21 18:12:00,
2013-04-21 14:27:00,49.3,19.2,30.32,East,90,5.8,-999.0,30,-99.99,,,0.00,Acu-Link.com,2013-04-21 18:27:00,
2013-04-21 14:42:00,50.7,19.6,30.32,NNW,337,5.8,-999.0,29,-99.99,,,0.00,Acu-Link.com,2013-04-21 18:42:00,
2013-04-21 14:58:00,50.4,20.1,30.32,NNW,337,4.7,-999.0,30,-99.99,,,0.00,Acu-Link.com,2013-04-21 18:58:00,
2013-04-21 15:13:00,50.9,20.6,30.32,SSW,202,2.2,-999.0,30,-99.99,,,0.00,Acu-Link.com,2013-04-21 19:13:00,
2013-04-21 15:28:00,51.1,19.9,30.32,NNW,337,5.1,-999.0,29,-99.99,,,0.00,Acu-Link.com,2013-04-21 19:28:00,
2013-04-21 15:43:00,52.5,19.5,30.32,West,270,1.1,-999.0,27,-99.99,,,0.00,Acu-Link.com,2013-04-21 19:43:00,
2013-04-21 15:58:00,51.8,18.9,30.32,ENE,67,2.7,-999.0,27,-99.99,,,0.00,Acu-Link.com,2013-04-21 19:58:00,
2013-04-21 16:14:00,51.4,20.3,30.31,North,0,0.0,-999.0,29,-99.99,,,0.00,Acu-Link.com,2013-04-21 20:14:00,
2013-04-21 16:29:00,51.6,18.7,30.31,NNW,337,3.8,-999.0,27,-99.99,,,0.00,Acu-Link.com,2013-04-21 20:29:00,
2013-04-21 16:44:00,50.5,17.8,30.32,East,90,2.7,-999.0,27,-99.99,,,0.00,Acu-Link.com,2013-04-21 20:44:00,
2013-04-21 16:59:00,51.8,17.1,30.32,ESE,112,5.1,-999.0,25,-99.99,,,0.00,Acu-Link.com,2013-04-21 20:59:00,
2013-04-21 17:15:00,50.9,17.3,30.33,NW,315,2.2,-999.0,26,-99.99,,,0.00,Acu-Link.com,2013-04-21 21:15:00,
2013-04-21 17:30:00,51.3,18.4,30.33,NNW,337,3.8,-999.0,27,-99.99,,,0.00,Acu-Link.com,2013-04-21 21:30:00,
2013-04-21 17:45:00,52.3,17.6,30.33,NNE,22,4.3,-999.0,25,-99.99,,,0.00,Acu-Link.com,2013-04-21 21:45:00,
2013-04-21 18:00:00,50.9,17.3,30.34,ENE,67,3.8,-999.0,26,-99.99,,,0.00,Acu-Link.com,2013-04-21 22:00:00,
2013-04-21 18:15:00,49.8,16.3,30.34,ENE,67,3.1,-999.0,26,-99.99,,,0.00,Acu-Link.com,2013-04-21 22:15:00,
2013-04-21 18:31:00,49.6,14.3,30.35,NNE,22,4.7,-999.0,24,-99.99,,,0.00,Acu-Link.com,2013-04-21 22:31:00,
2013-04-21 18:46:00,48.4,16.8,30.35,ESE,112,2.2,-999.0,28,-99.99,,,0.00,Acu-Link.com,2013-04-21 22:46:00,
2013-04-21 19:01:00,48.2,16.6,30.36,NNW,337,3.8,-999.0,28,-99.99,,,0.00,Acu-Link.com,2013-04-21 23:01:00,
2013-04-21 19:16:00,47.8,15.5,30.36,NNE,22,3.1,-999.0,27,-99.99,,,0.00,Acu-Link.com,2013-04-21 23:16:00,
2013-04-21 19:31:00,47.5,15.2,30.37,NW,315,2.7,-999.0,27,-99.99,,,0.00,Acu-Link.com,2013-04-21 23:31:00,
2013-04-21 19:47:00,46.4,15.9,30.38,NW,315,2.2,-999.0,29,-99.99,,,0.00,Acu-Link.com,2013-04-21 23:47:00,
2013-04-21 20:02:00,45.5,16.6,30.39,NW,315,2.2,-999.0,31,-99.99,,,0.00,Acu-Link.com,2013-04-22 00:02:00,
2013-04-21 20:17:00,44.4,16.4,30.39,NNW,337,2.2,-999.0,32,-99.99,,,0.00,Acu-Link.com,2013-04-22 00:17:00,
2013-04-21 20:32:00,43.3,17.5,30.40,WNW,292,2.2,-999.0,35,-99.99,,,0.00,Acu-Link.com,2013-04-22 00:32:00,
2013-04-21 20:48:00,42.8,17.1,30.41,WNW,292,1.1,-999.0,35,-99.99,,,0.00,Acu-Link.com,2013-04-22 00:48:00,
2013-04-21 21:03:00,41.9,20.5,30.42,East,90,2.2,-999.0,42,-99.99,,,0.00,Acu-Link.com,2013-04-22 01:03:00,
2013-04-21 21:18:00,41.2,23.5,30.42,SW,225,0.0,-999.0,49,-99.99,,,0.00,Acu-Link.com,2013-04-22 01:18:00,
2013-04-21 21:33:00,39.9,24.2,30.43,West,270,1.6,-999.0,53,-99.99,,,0.00,Acu-Link.com,2013-04-22 01:33:00,
2013-04-21 21:48:00,39.7,24.9,30.44,WNW,292,1.6,-999.0,55,-99.99,,,0.00,Acu-Link.com,2013-04-22 01:48:00,
2013-04-21 22:04:00,39.4,25.0,30.44,ESE,112,0.0,-999.0,56,-99.99,,,0.00,Acu-Link.com,2013-04-22 02:04:00,
2013-04-21 22:19:00,38.1,25.1,30.44,WNW,292,1.6,-999.0,59,-99.99,,,0.00,Acu-Link.com,2013-04-22 02:19:00,
2013-04-21 22:34:00,38.1,25.5,30.45,West,270,2.2,-999.0,60,-99.99,,,0.00,Acu-Link.com,2013-04-22 02:34:00,
2013-04-21 22:49:00,37.9,25.7,30.45,West,270,1.6,-999.0,61,-99.99,,,0.00,Acu-Link.com,2013-04-22 02:49:00,
2013-04-21 23:05:00,37.6,25.4,30.45,WNW,292,0.0,-999.0,61,-99.99,,,0.00,Acu-Link.com,2013-04-22 03:05:00,
2013-04-21 23:20:00,36.7,25.3,30.45,WNW,292,0.0,-999.0,63,-99.99,,,0.00,Acu-Link.com,2013-04-22 03:20:00,
2013-04-21 23:35:00,36.1,24.8,30.45,WNW,292,0.0,-999.0,63,-99.99,,,0.00,Acu-Link.com,2013-04-22 03:35:00,
2013-04-21 23:50:00,35.6,24.3,30.45,WNW,292,0.0,-999.0,63,-99.99,,,0.00,Acu-Link.com,2013-04-22 03:50:00,